Time,TemperatureF,DewpointF,PressureIn,WindDirection,WindDirectionDegrees,WindSpeedMPH,WindSpeedGustMPH,Humidity,HourlyPrecipIn,Conditions,Clouds,dailyrainin,SoftwareType,DateUTC
2013-12-23 00:14:00,31.3,31.0,30.01,SSW,204,0.0,0.0,98,0.00,,,0.00,weatherlink.com 1.10,2013-12-23 05:14:00,
2013-12-23 00:29:00,31.3,31.0,30.01,East,90,0.0,0.0,98,0.00,,,0.00,weatherlink.com 1.10,2013-12-23 05:29:00,
2013-12-23 00:44:00,31.2,31.0,30.00,ESE,111,0.0,0.0,98,0.00,,,0.00,weatherlink.com 1.10,2013-12-23 05:44:00,
2013-12-23 00:59:00,31.0,31.0,30.00,North,351,1.0,2.0,98,0.00,,,0.00,weatherlink.com 1.10,2013-12-23 05:59:00,
2013-12-23 01:14:00,31.0,31.0,30.02,ESE,107,0.0,1.0,98,0.00,,,0.00,weatherlink.com 1.10,2013-12-23 06:14:00,
2013-12-23 01:29:00,30.9,30.0,30.02,East,88,0.0,2.0,98,0.00,,,0.00,weatherlink.com 1.10,2013-12-23 06:29:00,
2013-12-23 01:44:00,31.0,31.0,30.02,ESE,113,0.0,2.0,98,0.00,,,0.00,weatherlink.com 1.10,2013-12-23 06:44:00,
2013-12-23 01:59:00,31.0,31.0,30.04,East,94,1.0,1.0,98,0.00,,,0.00,weatherlink.com 1.10,2013-12-23 06:59:00,
2013-12-23 02:14:00,30.9,30.0,30.05,NW,316,0.0,1.0,98,0.00,,,0.00,weatherlink.com 1.10,2013-12-23 07:14:00,
2013-12-23 02:29:00,30.9,30.0,30.04,NW,319,0.0,0.0,98,0.00,,,0.00,weatherlink.com 1.10,2013-12-23 07:29:00,
2013-12-23 02:44:00,30.8,30.0,30.04,SSE,160,1.0,3.0,98,0.00,,,0.00,weatherlink.com 1.10,2013-12-23 07:44:00,
2013-12-23 02:59:00,30.7,30.0,30.04,East,87,0.0,2.0,98,0.00,,,0.00,weatherlink.com 1.10,2013-12-23 07:59:00,
2013-12-23 03:14:00,30.6,30.0,30.03,East,94,0.0,0.0,98,0.00,,,0.00,weatherlink.com 1.10,2013-12-23 08:14:00,
2013-12-23 03:29:00,30.6,30.0,30.04,NW,313,0.0,0.0,98,0.00,,,0.00,weatherlink.com 1.10,2013-12-23 08:29:00,
2013-12-23 03:45:00,30.6,30.0,30.05,NW,313,0.0,0.0,98,0.00,,,0.00,weatherlink.com 1.10,2013-12-23 08:45:00,
2013-12-23 04:00:00,30.6,30.0,30.05,NW,314,0.0,0.0,98,0.00,,,0.00,weatherlink.com 1.10,2013-12-23 09:00:00,
2013-12-23 04:15:00,30.7,30.0,30.05,NW,315,0.0,0.0,98,0.00,,,0.00,weatherlink.com 1.10,2013-12-23 09:15:00,
2013-12-23 04:30:00,30.7,30.0,30.05,NNE,22,0.0,0.0,98,0.00,,,0.00,weatherlink.com 1.10,2013-12-23 09:30:00,
2013-12-23 04:45:00,30.7,30.0,30.06,NNE,22,0.0,0.0,98,0.00,,,0.00,weatherlink.com 1.10,2013-12-23 09:45:00,
2013-12-23 05:00:00,30.7,30.0,30.05,East,98,0.0,0.0,98,0.00,,,0.00,weatherlink.com 1.10,2013-12-23 10:00:00,
2013-12-23 05:15:00,30.7,30.0,30.05,ESE,110,0.0,1.0,98,0.00,,,0.00,weatherlink.com 1.10,2013-12-23 10:15:00,
2013-12-23 05:30:00,30.6,30.0,30.05,ESE,105,0.0,0.0,98,0.00,,,0.00,weatherlink.com 1.10,2013-12-23 10:30:00,
2013-12-23 05:45:00,30.5,30.0,30.05,East,94,0.0,2.0,98,0.00,,,0.00,weatherlink.com 1.10,2013-12-23 10:45:00,
2013-12-23 06:00:00,30.5,30.0,30.06,East,82,0.0,1.0,98,0.00,,,0.00,weatherlink.com 1.10,2013-12-23 11:00:00,
2013-12-23 06:15:00,30.4,30.0,30.05,NE,49,0.0,3.0,98,0.00,,,0.00,weatherlink.com 1.10,2013-12-23 11:15:00,
2013-12-23 06:30:00,30.5,30.0,30.03,WNW,303,0.0,2.0,98,0.00,,,0.00,weatherlink.com 1.10,2013-12-23 11:30:00,
2013-12-23 06:45:00,30.5,30.0,30.05,WNW,283,0.0,1.0,98,0.00,,,0.00,weatherlink.com 1.10,2013-12-23 11:45:00,
2013-12-23 07:00:00,30.4,30.0,30.04,East,96,2.0,2.0,98,0.00,,,0.00,weatherlink.com 1.10,2013-12-23 12:00:00,
2013-12-23 07:15:00,30.5,30.0,30.04,North,6,0.0,1.0,98,0.00,,,0.00,weatherlink.com 1.10,2013-12-23 12:15:00,
2013-12-23 07:30:00,30.6,30.0,30.05,North,6,0.0,1.0,98,0.00,,,0.00,weatherlink.com 1.10,2013-12-23 12:30:00,
2013-12-23 07:45:00,30.6,30.0,30.06,North,6,0.0,0.0,98,0.00,,,0.00,weatherlink.com 1.10,2013-12-23 12:45:00,
2013-12-23 08:00:00,30.6,30.0,30.05,SE,132,0.0,1.0,98,0.01,,,0.01,weatherlink.com 1.10,2013-12-23 13:00:00,
2013-12-23 08:15:00,31.0,31.0,30.04,East,94,0.0,1.0,98,0.02,,,0.02,weatherlink.com 1.10,2013-12-23 13:15:00,
2013-12-23 08:30:00,31.2,31.0,30.05,East,91,0.0,0.0,98,0.03,,,0.03,weatherlink.com 1.10,2013-12-23 13:30:00,
2013-12-23 08:45:00,31.4,31.0,30.06,WNW,285,0.0,0.0,98,0.05,,,0.05,weatherlink.com 1.10,2013-12-23 13:45:00,
2013-12-23 09:00:00,31.7,31.0,30.07,NNE,13,0.0,0.0,98,0.06,,,0.07,weatherlink.com 1.10,2013-12-23 14:00:00,
2013-12-23 09:15:00,31.8,31.0,30.07,NE,43,0.0,0.0,98,0.08,,,0.10,weatherlink.com 1.10,2013-12-23 14:15:00,
2013-12-23 09:30:00,31.8,31.0,30.06,NE,37,1.0,2.0,98,0.09,,,0.12,weatherlink.com 1.10,2013-12-23 14:30:00,
2013-12-23 09:45:00,31.9,31.0,30.07,NNE,30,3.0,5.0,98,0.07,,,0.13,weatherlink.com 1.10,2013-12-23 14:45:00,
2013-12-23 10:00:00,31.9,31.0,30.06,NNW,347,0.0,2.0,98,0.07,,,0.14,weatherlink.com 1.10,2013-12-23 15:00:00,
2013-12-23 10:15:00,32.0,32.0,30.05,East,86,0.0,3.0,98,0.05,,,0.15,weatherlink.com 1.10,2013-12-23 15:15:00,
2013-12-23 10:30:00,31.9,31.0,30.05,North,353,1.0,2.0,98,0.05,,,0.17,weatherlink.com 1.10,2013-12-23 15:30:00,
2013-12-23 10:45:00,31.9,31.0,30.03,North,349,1.0,2.0,98,0.06,,,0.19,weatherlink.com 1.10,2013-12-23 15:45:00,
2013-12-23 11:00:00,32.0,32.0,30.02,South,191,1.0,4.0,98,0.06,,,0.20,weatherlink.com 1.10,2013-12-23 16:00:00,
2013-12-23 11:15:00,32.1,32.0,30.01,East,101,3.0,4.0,98,0.07,,,0.22,weatherlink.com 1.10,2013-12-23 16:15:00,
2013-12-23 11:30:00,32.0,32.0,30.03,WSW,245,1.0,2.0,98,0.06,,,0.23,weatherlink.com 1.10,2013-12-23 16:30:00,
2013-12-23 11:45:00,32.1,32.0,30.02,ENE,63,2.0,2.0,98,0.05,,,0.24,weatherlink.com 1.10,2013-12-23 16:45:00,
2013-12-23 12:00:00,32.1,32.0,30.02,WSW,243,0.0,0.0,98,0.06,,,0.26,weatherlink.com 1.10,2013-12-23 17:00:00,
2013-12-23 12:15:00,32.2,32.0,30.01,West,278,0.0,2.0,98,0.06,,,0.28,weatherlink.com 1.10,2013-12-23 17:15:00,
2013-12-23 12:30:00,32.2,32.0,30.01,East,95,0.0,2.0,98,0.05,,,0.28,weatherlink.com 1.10,2013-12-23 17:30:00,
2013-12-23 12:45:00,32.3,32.0,30.00,East,94,0.0,1.0,98,0.05,,,0.29,weatherlink.com 1.10,2013-12-23 17:45:00,
2013-12-23 13:00:00,32.4,32.0,30.00,East,94,0.0,0.0,98,0.03,,,0.29,weatherlink.com 1.10,2013-12-23 18:00:00,
2013-12-23 13:15:00,32.4,32.0,30.00,East,94,0.0,0.0,98,0.01,,,0.29,weatherlink.com 1.10,2013-12-23 18:15:00,
2013-12-23 13:30:00,32.6,32.0,30.00,East,95,0.0,0.0,98,0.01,,,0.29,weatherlink.com 1.10,2013-12-23 18:30:00,
2013-12-23 13:45:00,32.5,32.0,30.00,East,96,0.0,0.0,98,0.01,,,0.30,weatherlink.com 1.10,2013-12-23 18:45:00,
2013-12-23 14:00:00,32.5,32.0,30.00,East,96,0.0,0.0,98,0.01,,,0.30,weatherlink.com 1.10,2013-12-23 19:00:00,
2013-12-23 14:15:00,32.7,32.0,29.97,East,96,0.0,0.0,98,0.02,,,0.31,weatherlink.com 1.10,2013-12-23 19:15:00,
2013-12-23 14:30:00,32.5,32.0,29.99,East,96,0.0,1.0,98,0.02,,,0.31,weatherlink.com 1.10,2013-12-23 19:30:00,
2013-12-23 14:45:00,32.6,32.0,29.99,East,96,0.0,0.0,98,0.02,,,0.32,weatherlink.com 1.10,2013-12-23 19:45:00,
2013-12-23 15:00:00,32.5,32.0,29.98,SW,233,1.0,1.0,98,0.03,,,0.33,weatherlink.com 1.10,2013-12-23 20:00:00,
2013-12-23 15:15:00,32.6,32.0,29.98,SW,220,0.0,0.0,98,0.03,,,0.34,weatherlink.com 1.10,2013-12-23 20:15:00,
2013-12-23 15:30:00,32.5,32.0,29.98,ESE,120,0.0,1.0,98,0.03,,,0.34,weatherlink.com 1.10,2013-12-23 20:30:00,
2013-12-23 15:45:00,32.4,32.0,29.98,ESE,122,0.0,0.0,98,0.02,,,0.34,weatherlink.com 1.10,2013-12-23 20:45:00,
2013-12-23 16:00:00,32.3,32.0,29.99,SW,231,0.0,0.0,98,0.01,,,0.34,weatherlink.com 1.10,2013-12-23 21:00:00,
2013-12-23 16:15:00,32.3,32.0,30.00,SW,231,0.0,0.0,98,0.00,,,0.34,weatherlink.com 1.10,2013-12-23 21:15:00,
2013-12-23 16:30:00,32.3,32.0,29.98,SW,231,0.0,0.0,98,0.00,,,0.34,weatherlink.com 1.10,2013-12-23 21:30:00,
2013-12-23 16:45:00,32.4,32.0,29.98,SW,217,0.0,0.0,98,0.00,,,0.34,weatherlink.com 1.10,2013-12-23 21:45:00,
2013-12-23 17:00:00,32.3,32.0,30.00,SSW,207,0.0,0.0,98,0.01,,,0.35,weatherlink.com 1.10,2013-12-23 22:00:00,
2013-12-23 17:15:00,32.3,32.0,29.99,SSW,207,0.0,0.0,98,0.01,,,0.35,weatherlink.com 1.10,2013-12-23 22:15:00,
2013-12-23 17:30:00,32.3,32.0,30.00,SSW,207,0.0,0.0,98,0.01,,,0.35,weatherlink.com 1.10,2013-12-23 22:30:00,
2013-12-23 17:45:00,32.4,32.0,30.01,SSW,207,0.0,0.0,98,0.00,,,0.35,weatherlink.com 1.10,2013-12-23 22:45:00,
2013-12-23 18:00:00,32.3,32.0,30.02,SSW,207,0.0,0.0,98,0.01,,,0.36,weatherlink.com 1.10,2013-12-23 23:00:00,
2013-12-23 18:15:00,32.3,32.0,30.02,SE,142,0.0,0.0,98,0.02,,,0.37,weatherlink.com 1.10,2013-12-23 23:15:00,
2013-12-23 18:30:00,32.5,32.0,30.03,South,183,0.0,0.0,98,0.03,,,0.38,weatherlink.com 1.10,2013-12-23 23:30:00,
2013-12-23 18:45:00,35.3,35.0,30.04,West,276,1.0,4.0,98,0.05,,,0.40,weatherlink.com 1.10,2013-12-23 23:45:00,
2013-12-23 19:00:00,35.1,35.0,30.05,SSW,209,1.0,3.0,98,0.05,,,0.41,weatherlink.com 1.10,2013-12-24 00:00:00,
2013-12-23 19:16:00,36.3,36.0,30.05,West,281,1.0,3.0,98,0.04,,,0.41,weatherlink.com 1.10,2013-12-24 00:16:00,
2013-12-23 19:31:00,37.6,37.0,30.05,West,274,2.0,8.0,98,0.03,,,0.41,weatherlink.com 1.10,2013-12-24 00:31:00,
2013-12-23 19:46:00,38.4,38.0,30.06,WSW,243,1.0,9.0,98,0.01,,,0.41,weatherlink.com 1.10,2013-12-24 00:46:00,
2013-12-23 20:01:00,38.7,38.0,30.07,West,274,2.0,11.0,98,0.00,,,0.41,weatherlink.com 1.10,2013-12-24 01:01:00,
2013-12-23 20:16:00,38.2,38.0,30.06,West,273,3.0,6.0,98,0.00,,,0.41,weatherlink.com 1.10,2013-12-24 01:16:00,
2013-12-23 20:31:00,37.9,37.0,30.06,WSW,250,0.0,7.0,98,0.00,,,0.41,weatherlink.com 1.10,2013-12-24 01:31:00,
2013-12-23 20:46:00,37.1,37.0,30.07,NW,314,3.0,6.0,98,0.00,,,0.41,weatherlink.com 1.10,2013-12-24 01:46:00,
2013-12-23 21:01:00,36.9,36.0,30.09,WSW,257,3.0,9.0,97,0.00,,,0.41,weatherlink.com 1.10,2013-12-24 02:01:00,
2013-12-23 21:16:00,36.4,36.0,30.08,ENE,71,2.0,6.0,97,0.00,,,0.41,weatherlink.com 1.10,2013-12-24 02:16:00,
2013-12-23 21:31:00,36.0,35.0,30.07,WNW,288,0.0,6.0,96,0.00,,,0.41,weatherlink.com 1.10,2013-12-24 02:31:00,
2013-12-23 21:46:00,35.3,34.0,30.07,West,274,1.0,5.0,96,0.00,,,0.41,weatherlink.com 1.10,2013-12-24 02:46:00,
2013-12-23 22:01:00,34.9,34.0,30.09,West,271,1.0,6.0,96,0.00,,,0.41,weatherlink.com 1.10,2013-12-24 03:01:00,
2013-12-23 22:16:00,34.8,33.0,30.10,West,281,8.0,9.0,94,0.00,,,0.41,weatherlink.com 1.10,2013-12-24 03:16:00,
2013-12-23 22:31:00,34.7,33.0,30.10,WNW,284,1.0,9.0,94,0.00,,,0.41,weatherlink.com 1.10,2013-12-24 03:31:00,
2013-12-23 22:46:00,34.5,33.0,30.10,WNW,287,2.0,9.0,93,0.00,,,0.41,weatherlink.com 1.10,2013-12-24 03:46:00,
2013-12-23 23:01:00,34.1,32.0,30.10,WNW,293,3.0,8.0,93,0.00,,,0.41,weatherlink.com 1.10,2013-12-24 04:01:00,
2013-12-23 23:16:00,33.7,32.0,30.10,WNW,293,5.0,8.0,92,0.00,,,0.41,weatherlink.com 1.10,2013-12-24 04:16:00,
2013-12-23 23:31:00,33.5,31.0,30.10,SW,231,4.0,10.0,91,0.00,,,0.41,weatherlink.com 1.10,2013-12-24 04:31:00,
2013-12-23 23:46:00,32.9,31.0,30.09,West,265,1.0,9.0,93,0.00,,,0.41,weatherlink.com 1.10,2013-12-24 04:46:00,